Stations

Station Name Date Time Temperature Relative Humidity Precipitation Wind Speed Wind Direction Create Custom Report Daily Report Hourly Report
Aberdeen VTcr 2018-21-11 5:30 31.9 99.80 0.00
Bee Lake 2018-21-11 5:30
Brooksville 2018-21-11 5:30 32.6 100.00 0.00 0.00 W
Brooksville2 VTso 2018-21-11 5:30 33.2 100.00 0.00
Brown Loam Exp Stn VT 2018-21-11 5:30 30.3 100.00 0.00
Catladge Farm 2018-21-11 5:30 30.8 99.80 0.00 1.72 NNW
Clarksdale VTso 2018-24-10 8:30 50.6 84.40 0.00
Cleveland 2018-21-11 5:30 32.5 100.00 0.00 1.78 NNW
COOP Stoneville 2018-20-11 7:00 36.0 99 0.10
Home Cypress Farm 2018-21-11 5:30 33.0 100.00 0.00 0.98 NNW
Jackson Co 2018-21-11 5:30
Longwood VTso 2018-21-11 5:30 30.8 100.00 0.00
Lyon 2018-21-11 5:30 28.8 100.00 0.00 1.35 NW
Macon VTcr 2018-21-11 5:30 34.2 99.90 0.00
Mound Bayou 2018-21-11 5:30 31.6 95.60 0.00 0.39 NNW
Olive Branch VTcr 2018-21-11 5:30
Olive Branch2 VTso 2018-21-11 5:30 25.5 100.00 0.00
Onward VT 2018-21-11 5:30 32.5 99.90 0.00
Pontotoc AWS COOP 2018-21-11 5:30
Prairie 2018-21-11 5:30 33.3 100.00 0.00 4.15 N
Sidon 2018-21-11 5:30 35.0 99.30 0.00 0.15 WNW
Stockett Farm 2018-21-11 5:30 38.0 96.30 0.00 0.74 NW
Stoneville AWS 2018-21-11 5:30 32.3 99.60 0.00 0.75 NNW
Stoneville F10 2018-21-11 5:30 32.0 99.90 0.00 0.54 SW
Stoneville SW 2018-21-11 5:30 32.7 100.00 0.00 0.98 NW
Stoneville W 2018-21-11 5:30 33.9 100.00 0.00 1.47 NW
Thighman 2018-21-11 5:30 33.4 99.60 0.00 2.31 N
Tippo VT 2018-21-11 5:30 31.4 100.00 0.00
Tribbett 2018-21-11 5:30 33.2 99.80 0.00 2.48 NNW
Verona 2018-21-11 5:30 32.1 99.60 0.00 1.72 W
Verona VTso 2018-21-11 5:30 30.3 98.60 0.00